createdAt,value
2022-10-17T00:01:09.721Z,17.93
2022-10-17T00:03:39.025Z,17.59
2022-10-17T00:06:10.527Z,17.40
2022-10-17T00:08:40.884Z,17.33
2022-10-17T00:11:14.949Z,17.21
2022-10-17T00:13:45.316Z,17.10
2022-10-17T00:16:13.559Z,17.03
2022-10-17T00:18:41.379Z,16.97
2022-10-17T00:21:17.364Z,17.01
2022-10-17T00:23:46.720Z,16.89
2022-10-17T00:26:15.745Z,16.71
2022-10-17T00:28:48.358Z,16.55
2022-10-17T00:31:19.258Z,16.42
2022-10-17T00:33:47.956Z,16.32
2022-10-17T00:36:25.223Z,16.24
2022-10-17T00:38:56.911Z,16.20
2022-10-17T00:41:30.477Z,16.33
2022-10-17T00:44:06.192Z,16.53
2022-10-17T00:46:36.621Z,16.88
2022-10-17T00:49:10.548Z,17.88
2022-10-17T00:51:48.629Z,18.07
2022-10-17T00:54:19.677Z,18.02
2022-10-17T00:56:48.057Z,17.98
2022-10-17T00:59:19.549Z,18.55
2022-10-17T01:02:19.759Z,19.35
2022-10-17T01:04:51.887Z,20.25
2022-10-17T01:07:19.585Z,21.07
2022-10-17T01:09:47.809Z,21.35
2022-10-17T01:12:26.259Z,20.91
2022-10-17T01:15:26.774Z,20.62
2022-10-17T01:18:23.099Z,20.76
2022-10-17T01:21:20.887Z,20.25
2022-10-17T01:24:12.939Z,19.85
2022-10-17T01:26:59.371Z,19.64
2022-10-17T01:30:18.065Z,19.57
2022-10-17T01:32:59.240Z,19.90
2022-10-17T01:36:00.530Z,19.70
2022-10-17T01:38:46.590Z,19.32
2022-10-17T01:41:41.811Z,19.04
2022-10-17T01:44:23.405Z,18.81
2022-10-17T01:46:52.475Z,18.63
2022-10-17T01:49:24.984Z,18.50
2022-10-17T01:51:59.586Z,18.35
2022-10-17T01:54:35.814Z,18.22
2022-10-17T01:57:06.786Z,18.09
2022-10-17T01:59:44.951Z,18.00
2022-10-17T02:02:14.504Z,17.89
2022-10-17T02:04:43.179Z,17.78
2022-10-17T02:07:13.375Z,17.68
2022-10-17T02:09:41.056Z,17.61
2022-10-17T02:12:34.716Z,17.54
2022-10-17T02:15:43.470Z,17.47
2022-10-17T02:18:54.594Z,17.40
2022-10-17T02:22:23.925Z,17.34
2022-10-17T02:25:20.931Z,17.26
2022-10-17T02:28:23.894Z,17.22
2022-10-17T02:31:07.811Z,17.16
2022-10-17T02:33:46.311Z,17.09
2022-10-17T02:36:29.583Z,17.03
2022-10-17T02:38:58.195Z,16.98
2022-10-17T02:41:26.295Z,16.93
2022-10-17T02:43:56.631Z,16.90
2022-10-17T02:46:28.769Z,16.86
2022-10-17T02:49:24.093Z,16.83
2022-10-17T02:52:14.556Z,16.79
2022-10-17T02:54:52.705Z,16.77
2022-10-17T02:57:39.817Z,16.74
2022-10-17T03:00:13.677Z,16.73
2022-10-17T03:02:51.250Z,16.70
2022-10-17T03:05:28.786Z,16.68
2022-10-17T03:07:56.881Z,16.66
2022-10-17T03:10:24.689Z,16.66
2022-10-17T03:12:52.458Z,16.64
2022-10-17T03:15:20.160Z,16.62
2022-10-17T03:17:47.889Z,16.55
2022-10-17T03:20:15.819Z,16.48
2022-10-17T03:22:43.539Z,16.44
2022-10-17T03:25:11.187Z,16.41
2022-10-17T03:27:38.911Z,16.38
2022-10-17T03:30:07.677Z,16.36
2022-10-17T03:32:36.059Z,16.33
2022-10-17T03:35:04.661Z,16.30
2022-10-17T03:37:32.581Z,16.26
2022-10-17T03:40:00.534Z,16.23
2022-10-17T03:42:28.409Z,16.22
2022-10-17T03:44:56.033Z,16.20
2022-10-17T03:47:23.711Z,16.19
2022-10-17T03:49:53.711Z,16.16
2022-10-17T03:52:21.667Z,16.11
2022-10-17T03:54:51.191Z,16.08
2022-10-17T03:57:19.675Z,16.05
2022-10-17T03:59:47.419Z,16.02
2022-10-17T04:02:15.097Z,15.99
2022-10-17T04:04:42.753Z,15.96
2022-10-17T04:07:10.459Z,15.94
2022-10-17T04:09:38.182Z,15.92
2022-10-17T04:12:05.913Z,15.90
2022-10-17T04:14:33.695Z,15.90
2022-10-17T04:17:01.331Z,15.88
2022-10-17T04:19:29.193Z,15.87
2022-10-17T04:21:56.937Z,15.84
2022-10-17T04:24:25.833Z,15.82
2022-10-17T04:26:54.848Z,15.82
2022-10-17T04:29:22.619Z,15.79
2022-10-17T04:31:51.792Z,15.78
2022-10-17T04:34:19.862Z,15.76
2022-10-17T04:36:47.691Z,15.75
2022-10-17T04:39:15.548Z,15.75
2022-10-17T04:41:43.488Z,15.72
2022-10-17T04:44:11.305Z,15.71
2022-10-17T04:46:39.369Z,15.70
2022-10-17T04:49:07.160Z,15.69
2022-10-17T04:51:35.013Z,15.68
2022-10-17T04:54:02.848Z,15.66
2022-10-17T04:56:30.969Z,15.66
2022-10-17T04:58:59.776Z,15.67
2022-10-17T05:01:27.626Z,15.67
2022-10-17T05:03:56.112Z,15.59
2022-10-17T05:06:27.966Z,15.52
2022-10-17T05:08:56.556Z,15.42
2022-10-17T05:11:28.108Z,15.35
2022-10-17T05:14:01.918Z,15.29
2022-10-17T05:16:31.010Z,15.22
2022-10-17T05:18:59.600Z,15.16
2022-10-17T05:21:29.406Z,15.07
2022-10-17T05:23:57.540Z,15.01
2022-10-17T05:26:26.346Z,14.96
2022-10-17T05:28:54.856Z,14.92
2022-10-17T05:31:22.680Z,14.87
2022-10-17T05:33:50.419Z,14.83
2022-10-17T05:36:18.074Z,14.81
2022-10-17T05:38:51.206Z,14.79
2022-10-17T05:41:20.097Z,14.79
2022-10-17T05:43:47.938Z,14.76
2022-10-17T05:46:15.728Z,14.74
2022-10-17T05:48:46.189Z,14.72
2022-10-17T05:51:14.133Z,14.70
2022-10-17T05:53:45.651Z,14.70
2022-10-17T05:56:14.979Z,14.69
2022-10-17T05:58:50.295Z,14.68
2022-10-17T06:01:19.353Z,14.68
2022-10-17T06:03:47.065Z,14.69
2022-10-17T06:06:15.519Z,14.70
2022-10-17T06:08:44.057Z,14.72
2022-10-17T06:11:13.207Z,14.74
2022-10-17T06:13:41.489Z,14.75
2022-10-17T06:16:11.654Z,14.78
2022-10-17T06:18:39.489Z,14.81
2022-10-17T06:21:11.473Z,14.83
2022-10-17T06:23:39.198Z,14.88
2022-10-17T06:26:07.782Z,14.91
2022-10-17T06:28:36.712Z,14.95
2022-10-17T06:31:11.196Z,14.97
2022-10-17T06:33:39.443Z,14.97
2022-10-17T06:42:49.072Z,14.99
2022-10-17T06:45:15.525Z,15.03
2022-10-17T06:47:41.870Z,15.11
2022-10-17T06:50:08.652Z,15.18
2022-10-17T06:52:35.198Z,15.20
2022-10-17T06:57:32.815Z,15.25
2022-10-17T06:59:59.151Z,15.30
2022-10-17T07:02:25.769Z,15.35
2022-10-17T07:04:52.231Z,15.41
2022-10-17T07:07:18.610Z,15.46
2022-10-17T07:09:44.935Z,15.51
2022-10-17T07:12:12.226Z,15.56
2022-10-17T07:14:38.692Z,15.61
2022-10-17T07:17:05.257Z,15.66
2022-10-17T07:19:32.099Z,15.72
2022-10-17T07:21:58.656Z,15.79
2022-10-17T07:24:25.234Z,15.85
2022-10-17T07:26:51.974Z,15.93
2022-10-17T07:29:18.401Z,16.02
2022-10-17T07:31:48.274Z,16.12
2022-10-17T07:34:17.866Z,16.25
2022-10-17T07:36:44.879Z,16.40
2022-10-17T07:39:14.374Z,16.52
2022-10-17T07:41:40.923Z,16.60
2022-10-17T07:44:07.341Z,16.69
2022-10-17T07:46:33.836Z,16.78
2022-10-17T07:49:00.187Z,16.89
2022-10-17T07:51:27.295Z,17.01
2022-10-17T07:53:53.588Z,17.11
2022-10-17T07:56:23.977Z,17.22
2022-10-17T07:58:52.019Z,17.34
2022-10-17T08:01:18.821Z,17.47
2022-10-17T08:03:47.962Z,17.61
2022-10-17T08:06:14.829Z,17.78
2022-10-17T08:08:41.691Z,17.95
2022-10-17T08:11:12.297Z,18.10
2022-10-17T08:13:39.870Z,18.26
2022-10-17T08:16:09.448Z,18.42
2022-10-17T08:18:36.687Z,18.57
2022-10-17T08:21:08.731Z,18.72
2022-10-17T08:23:36.178Z,18.86
2022-10-17T08:26:05.667Z,19.02
2022-10-17T08:28:36.051Z,19.18
2022-10-17T08:31:18.267Z,19.36
2022-10-17T08:33:45.369Z,19.55
2022-10-17T08:36:18.336Z,19.72
2022-10-17T08:38:47.912Z,19.92
2022-10-17T08:41:51.739Z,20.16
2022-10-17T08:44:44.786Z,20.46
2022-10-17T08:47:18.760Z,20.77
2022-10-17T08:49:52.969Z,21.09
2022-10-17T08:52:34.240Z,21.46
2022-10-17T08:55:00.651Z,21.79
2022-10-17T08:57:28.453Z,22.08
2022-10-17T08:59:56.238Z,22.34
2022-10-17T09:02:43.077Z,22.63
2022-10-17T09:05:28.123Z,22.94
2022-10-17T09:08:09.051Z,23.29
2022-10-17T09:11:00.207Z,23.58
2022-10-17T09:14:10.631Z,23.88
2022-10-17T09:17:03.245Z,24.23
2022-10-17T09:19:32.180Z,24.58
2022-10-17T09:22:08.723Z,24.82
2022-10-17T09:25:02.735Z,25.01
2022-10-17T09:27:48.960Z,25.30
2022-10-17T09:30:45.836Z,25.56
2022-10-17T09:33:28.532Z,25.83
2022-10-17T09:36:08.647Z,26.00
2022-10-17T09:38:52.279Z,26.19
2022-10-17T09:41:44.909Z,26.39
2022-10-17T09:44:29.052Z,26.59
2022-10-17T09:47:25.174Z,26.72
2022-10-17T09:49:52.209Z,26.83
2022-10-17T09:52:36.200Z,26.91
2022-10-17T09:55:21.981Z,26.94
2022-10-17T09:58:00.903Z,26.92
2022-10-17T10:00:31.863Z,26.95
2022-10-17T10:03:17.840Z,27.04
2022-10-17T10:05:58.788Z,27.12
2022-10-17T10:08:38.668Z,27.24
2022-10-17T10:11:13.349Z,27.39
2022-10-17T10:13:40.461Z,27.59
2022-10-17T10:16:18.230Z,27.76
2022-10-17T10:18:47.546Z,27.93
2022-10-17T10:21:27.083Z,28.11
2022-10-17T10:24:08.766Z,28.27
2022-10-17T10:26:59.419Z,28.37
2022-10-17T10:29:36.615Z,28.47
2022-10-17T10:32:19.181Z,28.53
2022-10-17T10:35:20.709Z,28.52
2022-10-17T10:37:58.562Z,28.51
2022-10-17T10:40:36.776Z,28.48
2022-10-17T10:43:05.683Z,28.44
2022-10-17T10:45:47.446Z,28.28
2022-10-17T10:48:27.753Z,28.21
2022-10-17T10:51:02.677Z,28.27
2022-10-17T10:53:56.589Z,28.43
2022-10-17T10:56:32.762Z,28.71
2022-10-17T10:59:08.326Z,28.96
2022-10-17T11:01:44.134Z,29.15
2022-10-17T11:04:46.670Z,29.22
2022-10-17T11:07:56.069Z,29.33
2022-10-17T11:10:51.793Z,29.39
2022-10-17T11:13:43.108Z,29.30
2022-10-17T11:16:50.097Z,29.21
2022-10-17T11:19:43.481Z,29.13
2022-10-17T11:22:23.978Z,29.11
2022-10-17T11:28:39.978Z,29.17
2022-10-17T11:31:20.360Z,29.21
2022-10-17T11:34:46.349Z,29.24
2022-10-17T11:38:16.210Z,29.23
2022-10-17T11:40:50.812Z,29.18
2022-10-17T11:44:02.583Z,29.12
2022-10-17T11:46:35.910Z,29.06
2022-10-17T11:49:20.362Z,29.07
2022-10-17T11:52:10.054Z,29.07
2022-10-17T11:54:51.323Z,29.06
2022-10-17T11:57:54.336Z,29.06
2022-10-17T12:00:45.134Z,29.08
2022-10-17T12:03:41.312Z,29.10
2022-10-17T12:06:20.309Z,29.17
2022-10-17T12:09:00.023Z,29.22
2022-10-17T12:11:57.866Z,29.26
2022-10-17T12:14:42.149Z,29.27
2022-10-17T12:17:40.102Z,29.25
2022-10-17T12:20:25.231Z,29.22
2022-10-17T12:23:11.747Z,29.15
2022-10-17T12:25:49.452Z,29.07
2022-10-17T12:28:42.182Z,28.99
2022-10-17T12:31:15.717Z,28.91
2022-10-17T12:33:59.278Z,28.83
2022-10-17T12:36:26.903Z,28.77
2022-10-17T12:39:33.168Z,28.69
2022-10-17T12:41:59.545Z,28.55
2022-10-17T12:44:27.205Z,28.45
2022-10-17T12:47:07.473Z,28.41
2022-10-17T12:49:45.868Z,28.37
2022-10-17T12:52:29.005Z,28.31
2022-10-17T12:55:11.927Z,28.28
2022-10-17T12:58:03.241Z,28.23
2022-10-17T13:00:49.856Z,28.17
2022-10-17T13:03:31.215Z,28.08
2022-10-17T13:06:04.740Z,28.01
2022-10-17T13:08:38.895Z,27.94
2022-10-17T13:11:06.142Z,27.86
2022-10-17T13:13:42.027Z,27.76
2022-10-17T13:16:08.912Z,27.62
2022-10-17T13:18:35.415Z,27.45
2022-10-17T13:21:16.244Z,27.27
2022-10-17T13:23:42.846Z,27.08
2022-10-17T13:26:25.041Z,26.91
2022-10-17T13:29:13.823Z,26.74
2022-10-17T13:31:44.533Z,26.55
2022-10-17T13:34:24.365Z,26.40
2022-10-17T13:36:57.666Z,26.26
2022-10-17T13:39:44.985Z,26.16
2022-10-17T13:42:21.466Z,26.06
2022-10-17T13:44:48.067Z,25.99
2022-10-17T13:47:31.900Z,25.91
2022-10-17T13:49:59.111Z,25.84
2022-10-17T13:52:29.617Z,25.76
2022-10-17T13:55:17.472Z,25.68
2022-10-17T13:57:47.037Z,25.60
2022-10-17T14:00:22.323Z,25.52
2022-10-17T14:02:48.901Z,25.43
2022-10-17T14:05:20.201Z,25.36
2022-10-17T14:10:43.181Z,25.21
2022-10-17T14:13:33.423Z,25.13
2022-10-17T14:16:02.772Z,25.05
2022-10-17T14:18:36.481Z,24.98
2022-10-17T14:21:34.394Z,24.92
2022-10-17T14:24:12.210Z,24.84
2022-10-17T14:26:49.957Z,24.77
2022-10-17T14:29:54.048Z,24.69
2022-10-17T14:32:21.815Z,24.59
2022-10-17T14:35:00.712Z,24.51
2022-10-17T14:37:49.676Z,24.43
2022-10-17T14:40:27.136Z,24.35
2022-10-17T14:42:57.068Z,24.27
2022-10-17T14:45:30.457Z,24.20
2022-10-17T14:48:13.225Z,24.12
2022-10-17T14:50:41.549Z,24.04
2022-10-17T14:54:05.053Z,23.94
2022-10-17T14:56:41.445Z,23.86
2022-10-17T14:59:12.626Z,23.79
2022-10-17T15:01:42.274Z,23.72
2022-10-17T15:04:10.397Z,23.65
2022-10-17T15:06:36.838Z,23.58
2022-10-17T15:09:04.089Z,23.52
2022-10-17T15:11:30.579Z,23.44
2022-10-17T15:13:57.088Z,23.37
2022-10-17T15:16:26.160Z,23.30
2022-10-17T15:18:53.841Z,23.22
2022-10-17T15:21:38.445Z,23.14
2022-10-17T15:24:07.193Z,23.05
2022-10-17T15:26:34.460Z,22.97
2022-10-17T15:29:01.231Z,22.89
2022-10-17T15:31:30.653Z,22.81
2022-10-17T15:33:57.651Z,22.72
2022-10-17T15:36:34.432Z,22.64
2022-10-17T15:39:02.030Z,22.56
2022-10-17T15:41:31.126Z,22.47
2022-10-17T15:43:58.219Z,22.37
2022-10-17T15:46:42.118Z,22.31
2022-10-17T15:49:14.350Z,22.32
2022-10-17T15:51:40.902Z,22.32
2022-10-17T15:54:07.343Z,22.30
2022-10-17T15:56:39.688Z,22.26
2022-10-17T15:59:13.407Z,22.22
2022-10-17T16:01:40.068Z,22.17
2022-10-17T16:04:06.609Z,22.11
2022-10-17T16:06:33.056Z,22.07
2022-10-17T16:08:59.859Z,22.01
2022-10-17T16:11:34.875Z,21.95
2022-10-17T16:14:06.506Z,21.88
2022-10-17T16:16:33.557Z,21.82
2022-10-17T16:19:00.982Z,21.75
2022-10-17T16:21:32.274Z,21.67
2022-10-17T16:24:00.038Z,21.60
2022-10-17T16:26:28.374Z,21.52
2022-10-17T16:29:02.008Z,21.45
2022-10-17T16:31:36.187Z,21.38
2022-10-17T16:34:04.265Z,21.31
2022-10-17T16:36:30.773Z,21.24
2022-10-17T16:38:57.402Z,21.16
2022-10-17T16:41:31.993Z,21.10
2022-10-17T16:44:01.505Z,21.02
2022-10-17T16:46:30.148Z,20.95
2022-10-17T16:48:57.610Z,20.88
2022-10-17T16:51:24.128Z,20.80
2022-10-17T16:53:53.875Z,20.73
2022-10-17T16:56:23.619Z,20.67
2022-10-17T16:58:51.261Z,20.61
2022-10-17T17:01:22.725Z,20.55
2022-10-17T17:03:51.096Z,20.48
2022-10-17T17:06:24.587Z,20.42
2022-10-17T17:08:51.033Z,20.33
2022-10-17T17:11:19.921Z,20.25
2022-10-17T17:13:46.767Z,20.17
2022-10-17T17:16:24.758Z,20.10
2022-10-17T17:19:04.445Z,20.02
2022-10-17T17:21:32.262Z,19.94
2022-10-17T17:24:01.507Z,19.86
2022-10-17T17:26:34.255Z,19.79
2022-10-17T17:29:01.344Z,19.70
2022-10-17T17:31:31.353Z,19.63
2022-10-17T17:34:00.656Z,19.55
2022-10-17T17:36:31.434Z,19.50
2022-10-17T17:39:35.884Z,19.43
2022-10-17T17:42:02.633Z,19.37
2022-10-17T17:44:29.134Z,19.30
2022-10-17T17:46:55.541Z,19.24
2022-10-17T17:49:22.126Z,19.17
2022-10-17T17:51:48.490Z,19.10
2022-10-17T17:54:14.993Z,19.04
2022-10-17T17:56:41.670Z,18.99
2022-10-17T17:59:12.044Z,18.93
2022-10-17T18:01:39.388Z,18.87
2022-10-17T18:04:08.131Z,18.80
2022-10-17T18:06:37.255Z,18.74
2022-10-17T18:09:05.509Z,18.68
2022-10-17T18:11:32.550Z,18.62
2022-10-17T18:14:07.061Z,18.56
2022-10-17T18:16:35.836Z,18.50
2022-10-17T18:19:07.011Z,18.43
2022-10-17T18:21:35.490Z,18.36
2022-10-17T18:24:04.506Z,18.29
2022-10-17T18:26:32.119Z,18.22
2022-10-17T18:28:58.868Z,18.14
2022-10-17T18:31:31.477Z,18.08
2022-10-17T18:33:59.757Z,18.01
2022-10-17T18:36:28.016Z,17.94
2022-10-17T18:38:55.657Z,17.88
2022-10-17T18:41:25.161Z,17.82
2022-10-17T18:43:53.882Z,17.77
2022-10-17T18:46:29.649Z,17.71
2022-10-17T18:48:56.329Z,17.65
2022-10-17T18:51:25.079Z,17.60
2022-10-17T18:53:54.741Z,17.54
2022-10-17T18:56:22.678Z,17.47
2022-10-17T18:58:49.471Z,17.40
2022-10-17T19:01:21.018Z,17.36
2022-10-17T19:03:49.579Z,17.31
2022-10-17T19:06:19.875Z,17.27
2022-10-17T19:08:47.488Z,17.24
2022-10-17T19:11:18.297Z,17.21
2022-10-17T19:13:47.588Z,17.18
2022-10-17T19:16:27.680Z,17.16
2022-10-17T19:19:20.606Z,17.14
2022-10-17T19:21:47.604Z,17.13
2022-10-17T19:24:24.691Z,17.14
2022-10-17T19:35:28.626Z,17.08
2022-10-17T19:37:56.295Z,17.06
2022-10-17T19:40:23.982Z,17.04
2022-10-17T19:42:52.254Z,17.02
2022-10-17T19:45:20.059Z,17.01
2022-10-17T19:47:47.784Z,17.00
2022-10-17T19:50:15.759Z,16.98
2022-10-17T19:52:43.569Z,16.97
2022-10-17T19:55:11.340Z,16.96
2022-10-17T19:57:39.157Z,16.96
2022-10-17T20:00:07.809Z,16.95
2022-10-17T20:02:35.589Z,16.96
2022-10-17T20:05:18.135Z,16.96
2022-10-17T20:07:46.831Z,16.96
2022-10-17T20:10:14.653Z,16.97
2022-10-17T20:12:42.350Z,16.98
2022-10-17T20:15:10.845Z,16.99
2022-10-17T20:17:38.935Z,17.00
2022-10-17T20:20:08.872Z,17.01
2022-10-17T20:22:36.824Z,17.02
2022-10-17T20:25:05.373Z,17.03
2022-10-17T20:27:33.278Z,17.04
2022-10-17T20:30:02.529Z,17.06
2022-10-17T20:32:39.551Z,17.06
2022-10-17T20:35:08.588Z,17.07
2022-10-17T20:37:41.582Z,17.08
2022-10-17T20:43:00.479Z,17.10
2022-10-17T20:45:43.623Z,17.11
2022-10-17T20:48:16.372Z,17.10
2022-10-17T20:50:44.709Z,17.08
2022-10-17T20:56:03.575Z,16.98
2022-10-17T20:58:31.365Z,16.93
2022-10-17T21:00:59.177Z,16.87
2022-10-17T21:03:26.933Z,16.81
2022-10-17T21:05:54.647Z,16.76
2022-10-17T21:08:22.381Z,16.72
2022-10-17T21:10:50.104Z,16.68
2022-10-17T21:13:17.870Z,16.65
2022-10-17T21:15:45.599Z,16.62
2022-10-17T21:18:13.283Z,16.60
2022-10-17T21:20:40.948Z,16.58
2022-10-17T21:23:08.636Z,16.57
2022-10-17T21:25:36.284Z,16.56
2022-10-17T21:28:03.995Z,16.55
2022-10-17T21:30:31.667Z,16.52
2022-10-17T21:32:59.621Z,16.49
2022-10-17T21:35:27.416Z,16.45
2022-10-17T21:37:55.080Z,16.40
2022-10-17T21:40:22.746Z,16.36
2022-10-17T21:42:50.353Z,16.33
2022-10-17T21:45:25.379Z,16.30
2022-10-17T21:48:13.801Z,16.28
2022-10-17T21:50:41.567Z,16.25
2022-10-17T21:53:09.305Z,16.23
2022-10-17T21:55:37.723Z,16.20
2022-10-17T21:58:05.488Z,16.20
2022-10-17T22:00:33.203Z,16.19
2022-10-17T22:03:01.162Z,16.18
2022-10-17T22:05:30.756Z,16.17
2022-10-17T22:07:58.424Z,16.17
2022-10-17T22:10:26.136Z,16.16
2022-10-17T22:12:53.855Z,16.15
2022-10-17T22:15:21.613Z,16.14
2022-10-17T22:17:49.436Z,16.11
2022-10-17T22:20:17.380Z,16.10
2022-10-17T22:22:45.065Z,16.08
2022-10-17T22:25:12.773Z,16.06
2022-10-17T22:27:40.460Z,16.03
2022-10-17T22:30:09.171Z,16.01
2022-10-17T22:32:36.882Z,15.99
2022-10-17T22:35:05.230Z,15.97
2022-10-17T22:37:33.431Z,15.94
2022-10-17T22:40:01.383Z,15.93
2022-10-17T22:42:31.779Z,15.91
2022-10-17T22:45:00.297Z,15.89
2022-10-17T22:47:30.668Z,15.88
2022-10-17T22:49:58.707Z,15.87
2022-10-17T22:52:26.424Z,15.85
2022-10-17T22:54:54.109Z,15.81
2022-10-17T22:57:21.737Z,15.78
2022-10-17T22:59:49.550Z,15.76
2022-10-17T23:02:17.240Z,15.74
2022-10-17T23:04:45.009Z,15.72
2022-10-17T23:07:14.258Z,15.70
2022-10-17T23:09:42.066Z,15.69
2022-10-17T23:12:10.169Z,15.67
2022-10-17T23:14:37.954Z,15.65
2022-10-17T23:17:06.322Z,15.62
2022-10-17T23:19:34.723Z,15.57
2022-10-17T23:22:03.195Z,15.53
2022-10-17T23:24:31.098Z,15.47
2022-10-17T23:26:58.931Z,15.42
2022-10-17T23:29:30.988Z,15.37
2022-10-17T23:31:59.144Z,15.32
2022-10-17T23:34:28.647Z,15.29
2022-10-17T23:36:56.836Z,15.24
2022-10-17T23:39:24.661Z,15.21
2022-10-17T23:41:52.288Z,15.17
2022-10-17T23:44:20.045Z,15.15
2022-10-17T23:46:47.929Z,15.13
2022-10-17T23:49:15.662Z,15.10
2022-10-17T23:51:43.266Z,15.07
2022-10-17T23:54:11.006Z,15.05
2022-10-17T23:56:38.787Z,15.02
2022-10-17T23:59:06.510Z,14.99
